createdAt,value
2019-05-30T00:00:42.882Z,3.02
2019-05-30T00:03:14.349Z,2.97
2019-05-30T00:05:45.816Z,3.42
2019-05-30T00:08:17.297Z,3.45
2019-05-30T00:10:48.623Z,3.25
2019-05-30T00:13:20.014Z,3.15
2019-05-30T00:15:51.886Z,3.05
2019-05-30T00:18:23.253Z,3.72
2019-05-30T00:20:54.737Z,3.02
2019-05-30T00:23:26.102Z,3.05
2019-05-30T00:25:57.611Z,2.70
2019-05-30T00:28:28.900Z,3.17
2019-05-30T00:31:02.560Z,2.60
2019-05-30T00:33:34.511Z,2.77
2019-05-30T00:36:06.357Z,2.60
2019-05-30T00:38:39.510Z,2.85
2019-05-30T00:41:10.896Z,2.80
2019-05-30T00:43:42.385Z,2.58
2019-05-30T00:46:14.401Z,2.25
2019-05-30T00:48:46.757Z,2.90
2019-05-30T00:51:19.082Z,2.90
2019-05-30T00:53:50.408Z,2.72
2019-05-30T00:56:21.938Z,2.92
2019-05-30T00:58:53.258Z,3.10
2019-05-30T01:01:24.597Z,2.50
2019-05-30T01:03:58.623Z,2.95
2019-05-30T01:06:30.199Z,2.90
2019-05-30T01:09:01.481Z,2.72
2019-05-30T01:11:34.849Z,2.25
2019-05-30T01:14:07.508Z,2.37
2019-05-30T01:16:42.280Z,2.42
2019-05-30T01:19:12.044Z,2.67
2019-05-30T01:21:44.107Z,2.80
2019-05-30T01:24:16.462Z,2.12
2019-05-30T01:26:47.935Z,2.20
2019-05-30T01:29:26.835Z,2.50
2019-05-30T01:31:59.825Z,2.60
2019-05-30T01:34:31.531Z,2.30
2019-05-30T01:37:03.789Z,2.65
2019-05-30T01:39:35.555Z,2.77
2019-05-30T01:42:07.912Z,2.43
2019-05-30T01:44:40.120Z,2.37
2019-05-30T01:47:11.854Z,2.67
2019-05-30T01:49:44.969Z,2.45
2019-05-30T01:52:16.617Z,2.42
2019-05-30T01:54:49.817Z,2.83
2019-05-30T01:57:22.446Z,2.83
2019-05-30T01:59:54.049Z,2.70
2019-05-30T02:02:25.394Z,2.60
2019-05-30T02:04:58.900Z,2.10
2019-05-30T02:07:30.278Z,2.50
2019-05-30T02:10:01.839Z,2.27
2019-05-30T02:12:35.656Z,2.20
2019-05-30T02:15:09.834Z,2.57
2019-05-30T02:17:41.550Z,2.45
2019-05-30T02:20:14.565Z,2.33
2019-05-30T02:22:45.750Z,2.57
2019-05-30T02:25:17.065Z,2.50
2019-05-30T02:27:48.407Z,3.02
2019-05-30T02:30:20.968Z,2.40
2019-05-30T02:32:52.523Z,2.85
2019-05-30T02:35:24.085Z,3.00
2019-05-30T02:37:58.668Z,2.90
2019-05-30T02:40:31.480Z,2.77
2019-05-30T02:43:07.625Z,2.70
2019-05-30T02:45:39.769Z,3.10
2019-05-30T02:48:12.188Z,3.20
2019-05-30T02:50:44.242Z,2.90
2019-05-30T02:53:15.560Z,3.10
2019-05-30T02:55:46.971Z,3.00
2019-05-30T02:58:18.433Z,3.27
2019-05-30T03:00:50.885Z,3.30
2019-05-30T03:03:22.140Z,2.93
2019-05-30T03:05:53.705Z,2.95
2019-05-30T03:08:25.556Z,3.52
2019-05-30T03:10:57.024Z,3.37
2019-05-30T03:13:28.752Z,3.30
2019-05-30T03:16:01.959Z,3.22
2019-05-30T03:18:33.382Z,3.17
2019-05-30T03:21:05.700Z,3.30
2019-05-30T03:23:38.513Z,3.67
2019-05-30T03:26:10.899Z,3.75
2019-05-30T03:28:44.743Z,4.10
2019-05-30T03:31:27.975Z,4.28
2019-05-30T03:33:50.913Z,4.03
2019-05-30T03:36:29.548Z,3.70
2019-05-30T03:38:57.902Z,4.30
2019-05-30T03:41:29.390Z,4.12
2019-05-30T03:44:00.803Z,3.90
2019-05-30T03:46:36.339Z,3.70
2019-05-30T03:49:12.707Z,4.60
2019-05-30T03:51:45.195Z,4.05
2019-05-30T03:54:25.141Z,4.30
2019-05-30T03:57:01.982Z,4.10
2019-05-30T03:59:37.382Z,4.17
2019-05-30T04:02:23.178Z,4.33
2019-05-30T04:05:02.728Z,4.17
2019-05-30T04:07:41.855Z,4.45
2019-05-30T04:10:15.721Z,4.42
2019-05-30T04:13:02.929Z,3.80
2019-05-30T04:15:35.250Z,4.28
2019-05-30T04:18:08.947Z,4.10
2019-05-30T04:20:40.315Z,4.30
2019-05-30T04:23:12.602Z,3.72
2019-05-30T04:25:44.495Z,3.83
2019-05-30T04:28:18.718Z,3.83
2019-05-30T04:30:50.390Z,3.40
2019-05-30T04:33:32.747Z,3.50
2019-05-30T04:35:54.973Z,3.33
2019-05-30T04:38:26.295Z,4.55
2019-05-30T04:40:57.849Z,4.22
2019-05-30T04:43:29.181Z,4.40
2019-05-30T04:46:00.812Z,3.47
2019-05-30T04:48:32.658Z,3.58
2019-05-30T04:51:04.133Z,3.98
2019-05-30T04:53:35.666Z,3.27
2019-05-30T04:56:06.971Z,3.37
2019-05-30T04:58:42.282Z,3.33
2019-05-30T05:01:13.136Z,2.70
2019-05-30T05:03:46.766Z,3.42
2019-05-30T05:06:18.006Z,2.85
2019-05-30T05:08:49.769Z,2.80
2019-05-30T05:11:25.299Z,2.50
2019-05-30T05:13:56.535Z,3.52
2019-05-30T05:16:35.483Z,3.33
2019-05-30T05:19:00.796Z,2.83
2019-05-30T05:21:32.391Z,2.87
2019-05-30T05:24:03.755Z,3.08
2019-05-30T05:26:36.003Z,2.60
2019-05-30T05:29:07.399Z,2.87
2019-05-30T05:31:38.821Z,3.70
2019-05-30T05:34:12.429Z,3.02
2019-05-30T05:36:43.888Z,2.72
2019-05-30T05:39:16.123Z,2.75
2019-05-30T05:41:48.570Z,2.67
2019-05-30T05:44:20.343Z,2.67
2019-05-30T05:46:53.550Z,2.77
2019-05-30T05:49:26.255Z,3.20
2019-05-30T05:52:01.778Z,2.95
2019-05-30T05:54:33.881Z,3.22
2019-05-30T05:57:05.341Z,3.02
2019-05-30T05:59:36.732Z,2.47
2019-05-30T06:02:08.084Z,2.42
2019-05-30T06:04:42.153Z,2.98
2019-05-30T06:07:13.651Z,3.08
2019-05-30T06:09:45.341Z,2.47
2019-05-30T06:12:17.583Z,3.37
2019-05-30T06:14:48.990Z,3.30
2019-05-30T06:17:21.164Z,2.75
2019-05-30T06:19:52.870Z,2.85
2019-05-30T06:22:24.237Z,2.90
2019-05-30T06:24:55.505Z,2.62
2019-05-30T06:27:31.607Z,2.62
2019-05-30T06:30:03.297Z,2.42
2019-05-30T06:32:34.958Z,2.60
2019-05-30T06:35:07.263Z,2.58
2019-05-30T06:37:38.731Z,2.62
2019-05-30T06:40:10.718Z,2.22
2019-05-30T06:42:44.459Z,2.08
2019-05-30T06:45:15.948Z,2.52
2019-05-30T06:47:49.873Z,2.50
2019-05-30T06:50:20.891Z,2.02
2019-05-30T06:52:53.761Z,1.77
2019-05-30T06:55:25.220Z,2.72
2019-05-30T06:57:56.891Z,2.15
2019-05-30T07:00:28.374Z,1.80
2019-05-30T07:03:00.046Z,2.00
2019-05-30T07:05:34.698Z,1.72
2019-05-30T07:08:06.634Z,2.10
2019-05-30T07:10:38.419Z,2.55
2019-05-30T07:13:10.092Z,1.98
2019-05-30T07:15:41.486Z,2.10
2019-05-30T07:18:14.276Z,1.80
2019-05-30T07:20:45.509Z,1.70
2019-05-30T07:23:18.510Z,2.45
2019-05-30T07:25:51.530Z,2.22
2019-05-30T07:28:23.817Z,1.85
2019-05-30T07:30:55.402Z,1.90
2019-05-30T07:33:27.737Z,1.60
2019-05-30T07:35:59.522Z,2.00
2019-05-30T07:38:32.536Z,1.98
2019-05-30T07:41:04.003Z,1.77
2019-05-30T07:43:37.320Z,1.70
2019-05-30T07:46:08.926Z,1.65
2019-05-30T07:48:40.349Z,1.75
2019-05-30T07:51:12.412Z,1.77
2019-05-30T07:53:44.336Z,2.08
2019-05-30T07:56:15.815Z,1.52
2019-05-30T07:58:47.921Z,1.98
2019-05-30T08:01:19.516Z,1.90
2019-05-30T08:03:51.203Z,1.82
2019-05-30T08:06:24.754Z,2.02
2019-05-30T08:08:56.031Z,1.95
2019-05-30T08:11:28.708Z,1.98
2019-05-30T08:14:00.364Z,2.05
2019-05-30T08:16:33.135Z,1.85
2019-05-30T08:19:04.836Z,2.00
2019-05-30T08:21:36.414Z,1.65
2019-05-30T08:24:07.871Z,2.10
2019-05-30T08:26:39.413Z,1.85
2019-05-30T08:29:10.902Z,1.55
2019-05-30T08:31:42.432Z,1.87
2019-05-30T08:34:14.026Z,1.82
2019-05-30T08:36:48.151Z,1.80
2019-05-30T08:39:19.605Z,1.15
2019-05-30T08:41:51.204Z,1.87
2019-05-30T08:44:22.497Z,1.77
2019-05-30T08:46:54.107Z,1.70
2019-05-30T08:49:25.444Z,1.27
2019-05-30T08:51:56.774Z,2.10
2019-05-30T08:54:28.507Z,1.70
2019-05-30T08:57:00.517Z,1.45
2019-05-30T08:59:32.350Z,1.50
2019-05-30T09:02:05.180Z,1.67
2019-05-30T09:04:37.936Z,1.47
2019-05-30T09:07:11.550Z,1.62
2019-05-30T09:09:44.507Z,1.42
2019-05-30T09:12:16.221Z,1.82
2019-05-30T09:14:47.768Z,1.22
2019-05-30T09:17:19.145Z,1.27
2019-05-30T09:19:52.313Z,1.07
2019-05-30T09:22:23.912Z,1.80
2019-05-30T09:24:55.211Z,1.25
2019-05-30T09:27:26.703Z,1.30
2019-05-30T09:30:00.607Z,1.20
2019-05-30T09:32:33.102Z,1.60
2019-05-30T09:35:05.651Z,1.12
2019-05-30T09:37:37.082Z,1.40
2019-05-30T09:40:16.433Z,1.45
2019-05-30T09:42:49.065Z,1.40
2019-05-30T09:45:23.901Z,1.87
2019-05-30T09:47:55.260Z,1.80
2019-05-30T09:50:28.445Z,1.72
2019-05-30T09:52:59.818Z,1.82
2019-05-30T09:55:31.511Z,1.72
2019-05-30T09:58:04.856Z,1.42
2019-05-30T10:00:36.738Z,1.60
2019-05-30T10:03:13.304Z,1.75
2019-05-30T10:05:47.044Z,1.60
2019-05-30T10:08:21.969Z,1.60
2019-05-30T10:10:54.831Z,1.75
2019-05-30T10:13:26.226Z,1.30
2019-05-30T10:15:57.675Z,1.50
2019-05-30T10:18:29.516Z,1.80
2019-05-30T10:21:02.741Z,1.42
2019-05-30T10:23:34.653Z,1.50
2019-05-30T10:26:06.244Z,1.37
2019-05-30T10:28:37.826Z,1.60
2019-05-30T10:31:09.284Z,1.20
2019-05-30T10:33:42.782Z,1.20
2019-05-30T10:36:14.847Z,1.40
2019-05-30T10:38:49.062Z,1.55
2019-05-30T10:41:20.951Z,1.30
2019-05-30T10:43:53.693Z,1.82
2019-05-30T10:46:25.157Z,1.60
2019-05-30T10:48:56.865Z,1.60
2019-05-30T10:51:28.326Z,1.32
2019-05-30T10:53:59.907Z,1.30
2019-05-30T10:56:31.591Z,1.45
2019-05-30T10:59:03.225Z,1.52
2019-05-30T11:01:34.585Z,1.75
2019-05-30T11:04:09.017Z,1.52
2019-05-30T11:07:10.765Z,1.57
2019-05-30T11:09:37.742Z,1.55
2019-05-30T11:12:09.195Z,1.50
2019-05-30T11:14:40.715Z,1.50
2019-05-30T11:17:15.256Z,1.60
2019-05-30T11:19:47.618Z,1.45
2019-05-30T11:22:18.987Z,1.62
2019-05-30T11:24:52.737Z,1.60
2019-05-30T11:27:25.321Z,1.55
2019-05-30T11:29:56.954Z,1.40
2019-05-30T11:32:30.959Z,1.35
2019-05-30T11:35:03.710Z,1.10
2019-05-30T11:37:35.253Z,1.30
2019-05-30T11:40:07.117Z,1.65
2019-05-30T11:42:38.664Z,1.42
2019-05-30T11:45:10.067Z,1.27
2019-05-30T11:47:41.530Z,1.30
2019-05-30T11:50:13.543Z,1.30
2019-05-30T11:52:45.425Z,1.60
2019-05-30T11:55:17.218Z,1.52
2019-05-30T11:57:49.863Z,1.95
2019-05-30T12:00:22.358Z,1.30
2019-05-30T12:02:54.293Z,1.37
2019-05-30T12:05:26.546Z,1.55
2019-05-30T12:07:58.923Z,1.22
2019-05-30T12:10:31.008Z,1.30
2019-05-30T12:13:02.388Z,1.40
2019-05-30T12:15:34.255Z,1.40
2019-05-30T12:18:08.252Z,1.47
2019-05-30T12:20:39.869Z,1.87
2019-05-30T12:23:11.234Z,1.30
2019-05-30T12:25:42.698Z,1.20
2019-05-30T12:28:14.222Z,1.50
2019-05-30T12:30:55.928Z,1.50
2019-05-30T12:33:18.930Z,1.42
2019-05-30T12:35:50.327Z,1.30
2019-05-30T12:38:23.237Z,1.17
2019-05-30T12:40:56.717Z,1.40
2019-05-30T12:43:28.133Z,1.20
2019-05-30T12:46:03.300Z,1.15
2019-05-30T12:48:34.645Z,1.67
2019-05-30T12:51:06.503Z,1.50
2019-05-30T12:53:38.067Z,1.47
2019-05-30T12:56:09.429Z,1.00
2019-05-30T12:58:40.861Z,1.30
2019-05-30T13:01:13.517Z,1.47
2019-05-30T13:03:45.873Z,1.50
2019-05-30T13:06:17.445Z,1.40
2019-05-30T13:08:49.199Z,1.30
2019-05-30T13:11:22.371Z,1.20
2019-05-30T13:13:55.141Z,1.30
2019-05-30T13:16:29.982Z,1.30
2019-05-30T13:19:02.222Z,1.00
2019-05-30T13:21:34.306Z,1.30
2019-05-30T13:24:06.167Z,1.42
2019-05-30T13:26:38.190Z,1.30
2019-05-30T13:29:10.044Z,1.20
2019-05-30T13:31:43.129Z,1.27
2019-05-30T13:34:14.311Z,1.00
2019-05-30T13:36:45.900Z,1.10
2019-05-30T13:39:17.466Z,1.12
2019-05-30T13:41:48.878Z,1.22
2019-05-30T13:44:20.853Z,1.32
2019-05-30T13:46:52.514Z,1.30
2019-05-30T13:49:25.127Z,1.30
2019-05-30T13:51:58.916Z,1.10
2019-05-30T13:54:35.737Z,1.62
2019-05-30T13:57:07.928Z,1.10
2019-05-30T13:59:40.834Z,1.20
2019-05-30T14:02:14.500Z,1.22
2019-05-30T14:04:45.554Z,1.10
2019-05-30T14:07:20.852Z,1.10
2019-05-30T14:09:53.246Z,1.17
2019-05-30T14:12:25.111Z,1.10
2019-05-30T14:14:56.545Z,1.40
2019-05-30T14:17:27.829Z,1.25
2019-05-30T14:19:59.215Z,1.37
2019-05-30T14:22:33.983Z,1.42
2019-05-30T14:25:07.423Z,1.10
2019-05-30T14:27:42.130Z,1.55
2019-05-30T14:30:14.123Z,1.02
2019-05-30T14:32:46.009Z,1.27
2019-05-30T14:35:41.473Z,1.30
2019-05-30T14:38:15.235Z,1.10
2019-05-30T14:40:48.098Z,1.55
2019-05-30T14:43:19.592Z,1.50
2019-05-30T14:45:50.984Z,1.10
2019-05-30T14:48:22.578Z,1.40
2019-05-30T14:50:55.695Z,1.45
2019-05-30T14:53:27.069Z,1.00
2019-05-30T14:55:58.464Z,1.55
2019-05-30T14:58:30.409Z,1.40
2019-05-30T15:01:02.245Z,1.30
2019-05-30T15:03:35.244Z,1.62
2019-05-30T15:06:08.822Z,1.47
2019-05-30T15:08:39.987Z,1.50
2019-05-30T15:11:11.794Z,1.45
2019-05-30T15:13:43.796Z,1.32
2019-05-30T15:16:15.172Z,1.65
2019-05-30T15:18:46.467Z,1.35
2019-05-30T15:21:17.743Z,1.40
2019-05-30T15:23:49.045Z,1.30
2019-05-30T15:26:20.337Z,1.50
2019-05-30T15:28:51.913Z,1.70
2019-05-30T15:31:23.663Z,1.60
2019-05-30T15:33:54.931Z,1.82
2019-05-30T15:36:26.286Z,1.50
2019-05-30T15:38:57.759Z,1.60
2019-05-30T15:41:29.209Z,1.90
2019-05-30T15:44:00.835Z,1.80
2019-05-30T15:46:32.528Z,1.45
2019-05-30T15:49:04.279Z,1.77
2019-05-30T15:51:35.672Z,1.17
2019-05-30T15:54:07.299Z,1.40
2019-05-30T15:56:38.963Z,1.27
2019-05-30T15:59:11.557Z,1.60
2019-05-30T16:01:43.051Z,1.17
2019-05-30T16:04:14.859Z,1.50
2019-05-30T16:06:46.224Z,1.47
2019-05-30T16:09:18.817Z,1.90
2019-05-30T16:11:50.172Z,1.30
2019-05-30T16:14:21.688Z,1.50
2019-05-30T16:16:52.930Z,1.40
2019-05-30T16:19:26.411Z,1.10
2019-05-30T16:21:57.464Z,1.55
2019-05-30T16:24:29.568Z,1.82
2019-05-30T16:27:02.173Z,1.42
2019-05-30T16:29:33.695Z,1.45
2019-05-30T16:32:05.054Z,1.37
2019-05-30T16:34:36.562Z,1.55
2019-05-30T16:37:07.911Z,1.37
2019-05-30T16:39:39.592Z,1.40
2019-05-30T16:42:11.146Z,1.75
2019-05-30T16:44:42.555Z,1.57
2019-05-30T16:47:16.459Z,1.85
2019-05-30T16:49:48.089Z,1.67
2019-05-30T16:52:19.362Z,1.55
2019-05-30T16:54:50.935Z,1.55
2019-05-30T16:57:22.731Z,1.30
2019-05-30T16:59:54.361Z,1.70
2019-05-30T17:02:26.790Z,1.72
2019-05-30T17:04:58.481Z,1.37
2019-05-30T17:07:30.046Z,1.52
2019-05-30T17:10:01.268Z,1.50
2019-05-30T17:12:32.966Z,1.65
2019-05-30T17:15:05.431Z,1.67
2019-05-30T17:17:37.524Z,1.60
2019-05-30T17:20:10.917Z,1.60
2019-05-30T17:22:42.470Z,1.65
2019-05-30T17:25:14.160Z,1.75
2019-05-30T17:27:45.720Z,1.92
2019-05-30T17:30:17.745Z,2.10
2019-05-30T17:32:49.016Z,1.87
2019-05-30T17:35:20.410Z,2.35
2019-05-30T17:37:52.210Z,1.90
2019-05-30T17:40:39.092Z,1.87
2019-05-30T17:42:56.642Z,1.90
2019-05-30T17:45:29.328Z,1.62
2019-05-30T17:48:15.646Z,2.05
2019-05-30T17:50:33.997Z,1.45
2019-05-30T17:53:05.449Z,2.02
2019-05-30T17:55:37.210Z,1.67
2019-05-30T17:58:10.391Z,1.75
2019-05-30T18:00:42.177Z,1.55
2019-05-30T18:03:13.847Z,1.80
2019-05-30T18:05:45.248Z,1.85
2019-05-30T18:08:16.820Z,1.87
2019-05-30T18:10:53.611Z,1.75
2019-05-30T18:13:21.294Z,1.57
2019-05-30T18:15:52.795Z,1.82
2019-05-30T18:18:25.319Z,1.75
2019-05-30T18:20:57.010Z,1.98
2019-05-30T18:23:29.603Z,2.10
2019-05-30T18:26:01.155Z,1.90
2019-05-30T18:28:33.011Z,1.75
2019-05-30T18:31:04.395Z,1.67
2019-05-30T18:33:35.962Z,1.92
2019-05-30T18:36:07.359Z,1.85
2019-05-30T18:38:38.864Z,2.35
2019-05-30T18:41:15.678Z,1.92
2019-05-30T18:43:44.985Z,2.25
2019-05-30T18:46:17.669Z,2.42
2019-05-30T18:48:49.160Z,1.90
2019-05-30T18:51:20.734Z,2.55
2019-05-30T18:53:52.033Z,2.40
2019-05-30T18:56:24.494Z,2.40
2019-05-30T18:58:55.915Z,2.50
2019-05-30T19:01:27.410Z,2.37
2019-05-30T19:03:59.733Z,2.42
2019-05-30T19:06:31.945Z,2.50
2019-05-30T19:09:04.288Z,2.92
2019-05-30T19:11:37.006Z,2.30
2019-05-30T19:14:09.023Z,2.35
2019-05-30T19:16:40.530Z,2.20
2019-05-30T19:19:11.906Z,2.22
2019-05-30T19:21:43.800Z,2.33
2019-05-30T19:24:15.059Z,2.12
2019-05-30T19:26:46.683Z,2.72
2019-05-30T19:29:18.962Z,2.33
2019-05-30T19:31:50.463Z,2.42
2019-05-30T19:34:21.949Z,2.47
2019-05-30T19:36:53.515Z,2.30
2019-05-30T19:39:25.017Z,2.60
2019-05-30T19:41:57.648Z,2.60
2019-05-30T19:44:29.956Z,2.85
2019-05-30T19:47:01.901Z,2.55
2019-05-30T19:49:34.547Z,3.17
2019-05-30T19:52:06.093Z,3.40
2019-05-30T19:54:37.511Z,3.77
2019-05-30T19:57:09.135Z,3.60
2019-05-30T19:59:40.562Z,3.25
2019-05-30T20:02:11.960Z,3.77
2019-05-30T20:04:43.798Z,4.20
2019-05-30T20:07:15.037Z,3.60
2019-05-30T20:10:00.464Z,4.00
2019-05-30T20:12:19.275Z,3.25
2019-05-30T20:14:50.750Z,3.35
2019-05-30T20:17:22.475Z,3.58
2019-05-30T20:19:54.591Z,3.12
2019-05-30T20:22:26.547Z,3.12
2019-05-30T20:24:57.896Z,2.80
2019-05-30T20:27:29.205Z,2.80
2019-05-30T20:30:00.664Z,2.90
2019-05-30T20:32:32.359Z,3.20
2019-05-30T20:35:04.591Z,2.70
2019-05-30T20:37:36.792Z,2.80
2019-05-30T20:40:08.523Z,3.15
2019-05-30T20:42:41.063Z,3.17
2019-05-30T20:45:13.821Z,3.45
2019-05-30T20:47:45.330Z,3.00
2019-05-30T20:50:18.247Z,3.50
2019-05-30T20:52:49.542Z,3.52
2019-05-30T20:55:21.111Z,3.62
2019-05-30T20:57:52.494Z,3.58
2019-05-30T21:00:35.624Z,3.42
2019-05-30T21:03:07.060Z,3.92
2019-05-30T21:05:39.561Z,3.50
2019-05-30T21:08:11.178Z,3.33
2019-05-30T21:10:44.603Z,4.20
2019-05-30T21:13:17.106Z,3.45
2019-05-30T21:15:49.642Z,3.83
2019-05-30T21:18:21.134Z,4.03
2019-05-30T21:20:52.724Z,4.00
2019-05-30T21:23:24.041Z,3.58
2019-05-30T21:25:55.606Z,4.17
2019-05-30T21:28:27.475Z,4.30
2019-05-30T21:30:58.939Z,3.90
2019-05-30T21:33:31.217Z,4.30
2019-05-30T21:36:02.771Z,4.10
2019-05-30T21:38:34.410Z,4.10
2019-05-30T21:41:05.870Z,4.15
2019-05-30T21:43:38.246Z,3.87
2019-05-30T21:46:10.674Z,3.72
2019-05-30T21:48:44.815Z,4.42
2019-05-30T21:51:16.248Z,4.50
2019-05-30T21:53:47.760Z,4.40
2019-05-30T21:56:19.102Z,5.00
2019-05-30T21:58:50.518Z,4.53
2019-05-30T22:01:30.205Z,4.55
2019-05-30T22:04:02.393Z,5.33
2019-05-30T22:06:34.460Z,4.83
2019-05-30T22:09:10.122Z,5.10
2019-05-30T22:11:41.705Z,5.22
2019-05-30T22:14:13.299Z,4.60
2019-05-30T22:16:45.898Z,5.35
2019-05-30T22:19:17.409Z,4.87
2019-05-30T22:21:50.181Z,5.50
2019-05-30T22:24:22.692Z,5.53
2019-05-30T22:26:54.148Z,5.58
2019-05-30T22:29:25.783Z,6.20
2019-05-30T22:31:57.755Z,6.60
2019-05-30T22:34:29.502Z,6.40
2019-05-30T22:37:01.178Z,7.28
2019-05-30T22:39:32.525Z,6.55
2019-05-30T22:42:04.093Z,7.92
2019-05-30T22:44:35.581Z,7.25
2019-05-30T22:47:07.114Z,6.62
2019-05-30T22:49:38.503Z,6.85
2019-05-30T22:52:10.621Z,6.33
2019-05-30T22:54:42.314Z,6.70
2019-05-30T22:57:13.569Z,6.42
2019-05-30T22:59:46.501Z,6.45
2019-05-30T23:02:19.322Z,6.33
2019-05-30T23:04:50.833Z,6.45
2019-05-30T23:07:22.110Z,6.50
2019-05-30T23:09:53.973Z,6.37
2019-05-30T23:12:26.745Z,5.83
2019-05-30T23:14:58.162Z,6.45
2019-05-30T23:17:29.744Z,5.95
2019-05-30T23:20:01.594Z,6.75
2019-05-30T23:22:33.385Z,7.20
2019-05-30T23:25:05.195Z,6.78
2019-05-30T23:27:36.840Z,6.58
2019-05-30T23:30:08.623Z,6.83
2019-05-30T23:32:40.471Z,6.55
2019-05-30T23:35:14.071Z,6.90
2019-05-30T23:37:46.419Z,6.80
2019-05-30T23:40:17.618Z,5.92
2019-05-30T23:42:48.994Z,6.87
2019-05-30T23:45:20.494Z,7.53
2019-05-30T23:47:52.087Z,7.05
2019-05-30T23:50:23.587Z,7.10
2019-05-30T23:52:56.188Z,7.17
2019-05-30T23:55:27.813Z,7.58
2019-05-30T23:57:59.167Z,7.33
